createdAt,value
2018-12-19T00:01:00.535Z,19.80
2018-12-19T00:03:29.125Z,19.80
2018-12-19T00:05:57.675Z,19.80
2018-12-19T00:08:26.180Z,19.80
2018-12-19T00:10:54.705Z,19.70
2018-12-19T00:13:23.240Z,19.70
2018-12-19T00:15:51.726Z,19.70
2018-12-19T00:18:20.189Z,19.70
2018-12-19T00:20:48.673Z,19.70
2018-12-19T00:23:17.174Z,19.60
2018-12-19T00:25:45.680Z,19.60
2018-12-19T00:28:14.156Z,19.60
2018-12-19T00:30:42.657Z,19.60
2018-12-19T00:33:11.173Z,19.60
2018-12-19T00:35:39.681Z,19.60
2018-12-19T00:38:08.190Z,19.60
2018-12-19T00:40:36.702Z,19.50
2018-12-19T00:43:05.208Z,19.60
2018-12-19T00:45:33.705Z,19.60
2018-12-19T00:48:02.173Z,19.70
2018-12-19T00:50:30.688Z,19.70
2018-12-19T00:52:59.219Z,19.70
2018-12-19T00:55:27.744Z,19.70
2018-12-19T00:57:56.256Z,19.70
2018-12-19T01:00:24.732Z,19.70
2018-12-19T01:02:53.229Z,19.80
2018-12-19T01:05:21.717Z,19.80
2018-12-19T01:07:50.216Z,19.80
2018-12-19T01:10:18.706Z,19.80
2018-12-19T01:12:47.199Z,19.80
2018-12-19T01:15:15.691Z,19.80
2018-12-19T01:17:44.192Z,19.80
2018-12-19T01:20:12.791Z,19.80
2018-12-19T01:22:41.364Z,19.80
2018-12-19T01:25:09.885Z,19.90
2018-12-19T01:27:38.910Z,19.80
2018-12-19T01:30:08.144Z,19.80
2018-12-19T01:32:36.627Z,19.80
2018-12-19T01:35:05.356Z,19.80
2018-12-19T01:37:35.557Z,19.80
2018-12-19T01:40:04.672Z,19.80
2018-12-19T01:42:33.181Z,19.80
2018-12-19T01:45:01.659Z,19.80
2018-12-19T01:47:30.172Z,19.80
2018-12-19T01:49:58.688Z,19.70
2018-12-19T01:52:27.224Z,19.70
2018-12-19T01:54:55.731Z,19.70
2018-12-19T01:57:24.249Z,19.70
2018-12-19T01:59:52.757Z,19.70
2018-12-19T02:02:21.284Z,19.70
2018-12-19T02:04:49.777Z,19.70
2018-12-19T02:07:18.253Z,19.60
2018-12-19T02:09:46.786Z,19.70
2018-12-19T02:12:15.305Z,19.60
2018-12-19T02:14:43.818Z,19.60
2018-12-19T02:17:12.325Z,19.70
2018-12-19T02:19:40.808Z,19.70
2018-12-19T02:22:09.295Z,19.70
2018-12-19T02:24:37.788Z,19.70
2018-12-19T02:27:06.265Z,19.70
2018-12-19T02:29:34.772Z,19.80
2018-12-19T02:32:07.496Z,19.80
2018-12-19T02:34:35.996Z,19.80
2018-12-19T02:37:04.481Z,19.80
2018-12-19T02:39:36.308Z,19.80
2018-12-19T02:42:03.528Z,19.80
2018-12-19T02:44:32.000Z,19.80
2018-12-19T02:47:00.549Z,19.80
2018-12-19T02:49:29.091Z,19.80
2018-12-19T02:51:57.606Z,19.80
2018-12-19T02:54:26.088Z,19.80
2018-12-19T02:56:54.594Z,19.80
2018-12-19T02:59:23.093Z,19.80
2018-12-19T03:01:51.609Z,19.80
2018-12-19T03:04:20.141Z,19.80
2018-12-19T03:06:48.700Z,19.80
2018-12-19T03:09:17.185Z,19.80
2018-12-19T03:11:45.674Z,19.70
2018-12-19T03:14:14.176Z,19.70
2018-12-19T03:16:42.673Z,19.70
2018-12-19T03:19:11.160Z,19.70
2018-12-19T03:21:39.660Z,19.70
2018-12-19T03:24:08.176Z,19.70
2018-12-19T03:26:36.696Z,19.60
2018-12-19T03:29:05.482Z,19.60
2018-12-19T03:31:34.030Z,19.60
2018-12-19T03:34:02.553Z,19.60
2018-12-19T03:36:31.092Z,19.60
2018-12-19T03:38:59.639Z,19.60
2018-12-19T03:41:28.220Z,19.60
2018-12-19T03:43:56.745Z,19.60
2018-12-19T03:46:25.292Z,19.60
2018-12-19T03:48:57.353Z,19.60
2018-12-19T03:51:26.392Z,19.60
2018-12-19T03:53:54.916Z,19.60
2018-12-19T03:56:23.423Z,19.60
2018-12-19T03:58:52.445Z,19.70
2018-12-19T04:01:20.933Z,19.70
2018-12-19T04:03:49.412Z,19.70
2018-12-19T04:06:17.902Z,19.70
2018-12-19T04:08:46.371Z,19.70
2018-12-19T04:11:14.872Z,19.70
2018-12-19T04:13:43.411Z,19.70
2018-12-19T04:16:11.925Z,19.70
2018-12-19T04:18:40.426Z,19.70
2018-12-19T04:21:08.928Z,19.70
2018-12-19T04:23:38.090Z,19.70
2018-12-19T04:26:06.680Z,19.70
2018-12-19T04:28:35.192Z,19.70
2018-12-19T04:31:03.664Z,19.70
2018-12-19T04:33:32.153Z,19.60
2018-12-19T04:36:00.667Z,19.70
2018-12-19T04:38:29.517Z,19.70
2018-12-19T04:40:58.004Z,19.60
2018-12-19T04:43:26.544Z,19.60
2018-12-19T04:45:55.008Z,19.60
2018-12-19T04:48:23.523Z,19.60
2018-12-19T04:50:52.024Z,19.60
2018-12-19T04:53:20.503Z,19.60
2018-12-19T04:55:49.040Z,19.60
2018-12-19T04:58:17.546Z,19.60
2018-12-19T05:00:46.077Z,19.60
2018-12-19T05:03:14.552Z,19.60
2018-12-19T05:05:43.064Z,19.60
2018-12-19T05:08:11.577Z,19.60
2018-12-19T05:10:40.107Z,19.60
2018-12-19T05:13:08.623Z,19.60
2018-12-19T05:15:37.140Z,19.60
2018-12-19T05:18:05.625Z,19.60
2018-12-19T05:20:34.202Z,19.60
2018-12-19T05:23:02.876Z,19.70
2018-12-19T05:25:31.395Z,19.70
2018-12-19T05:27:59.972Z,19.70
2018-12-19T05:30:28.546Z,19.70
2018-12-19T05:32:57.021Z,19.70
2018-12-19T05:35:25.521Z,19.70
2018-12-19T05:37:54.389Z,19.70
2018-12-19T05:40:22.890Z,19.70
2018-12-19T05:42:52.209Z,19.70
2018-12-19T05:45:20.718Z,19.60
2018-12-19T05:47:49.248Z,19.60
2018-12-19T05:50:19.669Z,19.50
2018-12-19T05:52:48.280Z,19.50
2018-12-19T05:55:16.836Z,19.40
2018-12-19T05:57:46.107Z,19.40
2018-12-19T06:00:14.710Z,19.40
2018-12-19T06:02:43.247Z,19.30
2018-12-19T06:05:11.714Z,19.30
2018-12-19T06:07:40.219Z,19.20
2018-12-19T06:10:08.708Z,19.20
2018-12-19T06:12:37.215Z,19.20
2018-12-19T06:15:05.763Z,19.20
2018-12-19T06:17:34.307Z,19.20
2018-12-19T06:20:03.498Z,19.20
2018-12-19T06:22:32.167Z,19.20
2018-12-19T06:25:00.674Z,19.20
2018-12-19T06:27:29.212Z,19.20
2018-12-19T06:29:58.116Z,19.20
2018-12-19T06:32:26.653Z,19.20
2018-12-19T06:34:55.158Z,19.20
2018-12-19T06:37:23.788Z,19.20
2018-12-19T06:39:52.300Z,19.20
2018-12-19T06:42:20.832Z,19.10
2018-12-19T06:44:49.628Z,19.10
2018-12-19T06:47:18.153Z,19.10
2018-12-19T06:49:46.622Z,19.20
2018-12-19T06:52:15.100Z,19.20
2018-12-19T06:54:43.639Z,19.20
2018-12-19T06:57:12.144Z,19.20
2018-12-19T06:59:41.647Z,19.20
2018-12-19T07:02:10.144Z,19.30
2018-12-19T07:04:38.654Z,19.30
2018-12-19T07:07:07.152Z,19.20
2018-12-19T07:09:36.343Z,19.20
2018-12-19T07:12:04.832Z,19.20
2018-12-19T07:14:35.852Z,19.20
2018-12-19T07:17:12.177Z,19.20
2018-12-19T07:19:47.369Z,19.10
2018-12-19T07:22:15.874Z,19.10
2018-12-19T07:24:44.452Z,19.10
2018-12-19T07:27:13.011Z,19.10
2018-12-19T07:29:41.498Z,19.10
2018-12-19T07:32:10.032Z,19.00
2018-12-19T07:34:44.176Z,19.00
2018-12-19T07:37:10.009Z,19.00
2018-12-19T07:39:39.219Z,19.00
2018-12-19T07:42:07.771Z,19.00
2018-12-19T07:44:36.292Z,18.90
2018-12-19T07:47:04.811Z,19.00
2018-12-19T07:49:33.325Z,19.00
2018-12-19T07:52:05.368Z,19.00
2018-12-19T07:54:33.871Z,19.00
2018-12-19T07:57:03.752Z,19.10
2018-12-19T07:59:32.305Z,19.10
2018-12-19T08:02:00.864Z,19.10
2018-12-19T08:04:29.604Z,19.20
2018-12-19T08:06:58.144Z,19.20
2018-12-19T08:09:26.759Z,19.20
2018-12-19T08:11:55.248Z,19.20
2018-12-19T08:14:23.783Z,19.10
2018-12-19T08:16:52.329Z,19.20
2018-12-19T08:19:20.876Z,19.20
2018-12-19T08:21:49.533Z,19.10
2018-12-19T08:24:18.044Z,19.10
2018-12-19T08:26:46.521Z,19.10
2018-12-19T08:29:15.058Z,19.00
2018-12-19T08:31:43.785Z,19.00
2018-12-19T08:34:43.151Z,19.00
2018-12-19T08:37:11.739Z,19.00
2018-12-19T08:39:40.586Z,18.90
2018-12-19T08:42:09.132Z,18.90
2018-12-19T08:44:37.633Z,18.90
2018-12-19T08:47:06.153Z,18.90
2018-12-19T08:49:34.672Z,18.90
2018-12-19T08:52:03.192Z,18.80
2018-12-19T08:54:31.753Z,18.80
2018-12-19T08:57:00.236Z,18.90
2018-12-19T08:59:28.757Z,18.90
2018-12-19T09:01:57.284Z,18.90
2018-12-19T09:04:26.013Z,18.90
2018-12-19T09:06:54.918Z,19.00
2018-12-19T09:09:23.420Z,18.90
2018-12-19T09:11:51.924Z,19.00
2018-12-19T09:14:20.443Z,19.00
2018-12-19T09:16:48.942Z,19.00
2018-12-19T09:19:17.571Z,19.10
2018-12-19T09:21:46.104Z,19.10
2018-12-19T09:24:14.623Z,19.10
2018-12-19T09:26:43.125Z,19.10
2018-12-19T09:29:12.159Z,19.10
2018-12-19T09:31:42.250Z,19.10
2018-12-19T09:34:10.766Z,19.10
2018-12-19T09:36:39.267Z,19.10
2018-12-19T09:39:07.768Z,19.00
2018-12-19T09:41:36.291Z,18.90
2018-12-19T09:44:05.263Z,18.90
2018-12-19T09:46:34.270Z,18.90
2018-12-19T09:49:02.785Z,18.90
2018-12-19T09:51:31.334Z,18.90
2018-12-19T09:53:59.871Z,18.90
2018-12-19T09:56:28.495Z,18.90
2018-12-19T09:58:57.753Z,18.80
2018-12-19T10:01:26.917Z,18.80
2018-12-19T10:03:55.443Z,18.80
2018-12-19T10:06:23.944Z,18.80
2018-12-19T10:08:52.436Z,18.90
2018-12-19T10:11:20.919Z,18.90
2018-12-19T10:13:49.420Z,19.00
2018-12-19T10:16:17.936Z,19.10
2018-12-19T10:18:46.437Z,19.10
2018-12-19T10:21:14.980Z,19.10
2018-12-19T10:23:43.484Z,19.10
2018-12-19T10:26:12.916Z,19.20
2018-12-19T10:28:41.489Z,19.30
2018-12-19T10:31:10.081Z,19.30
2018-12-19T10:33:38.584Z,19.30
2018-12-19T10:36:07.083Z,19.30
2018-12-19T10:38:35.591Z,19.30
2018-12-19T10:41:04.119Z,19.30
2018-12-19T10:43:32.632Z,19.30
2018-12-19T10:46:01.158Z,19.30
2018-12-19T10:48:30.146Z,19.30
2018-12-19T10:50:58.659Z,19.30
2018-12-19T10:53:27.191Z,19.20
2018-12-19T10:55:55.708Z,19.30
2018-12-19T10:58:24.223Z,19.20
2018-12-19T11:01:01.272Z,19.30
2018-12-19T11:03:29.775Z,19.20
2018-12-19T11:05:58.292Z,19.20
2018-12-19T11:08:26.765Z,19.20
2018-12-19T11:10:55.308Z,19.20
2018-12-19T11:13:23.824Z,19.20
2018-12-19T11:15:52.320Z,19.20
2018-12-19T11:18:21.407Z,19.20
2018-12-19T11:20:50.036Z,19.20
2018-12-19T11:23:18.537Z,19.30
2018-12-19T11:25:47.051Z,19.30
2018-12-19T11:28:15.572Z,19.30
2018-12-19T11:30:44.098Z,19.30
2018-12-19T11:33:12.702Z,19.30
2018-12-19T11:35:41.529Z,19.30
2018-12-19T11:38:10.102Z,19.40
2018-12-19T11:40:38.648Z,19.40
2018-12-19T11:43:07.412Z,19.40
2018-12-19T11:45:36.728Z,19.30
2018-12-19T11:48:05.746Z,19.30
2018-12-19T11:50:34.257Z,19.30
2018-12-19T11:53:02.757Z,19.40
2018-12-19T11:55:31.263Z,19.40
2018-12-19T11:57:59.782Z,19.40
2018-12-19T12:00:28.344Z,19.40
2018-12-19T12:02:56.867Z,19.30
2018-12-19T12:05:25.376Z,19.30
2018-12-19T12:07:53.888Z,19.30
2018-12-19T12:10:22.409Z,19.20
2018-12-19T12:12:51.646Z,19.20
2018-12-19T12:15:20.196Z,19.20
2018-12-19T12:17:48.663Z,19.30
2018-12-19T12:20:17.160Z,19.30
2018-12-19T12:22:45.699Z,19.30
2018-12-19T12:25:14.237Z,19.30
2018-12-19T12:27:42.748Z,19.30
2018-12-19T12:30:11.339Z,19.30
2018-12-19T12:32:39.832Z,19.30
2018-12-19T12:35:08.349Z,19.40
2018-12-19T12:37:36.831Z,19.40
2018-12-19T12:40:06.254Z,19.40
2018-12-19T12:42:34.764Z,19.40
2018-12-19T12:45:03.300Z,19.40
2018-12-19T12:47:32.110Z,19.40
2018-12-19T12:50:00.645Z,19.40
2018-12-19T12:52:29.215Z,19.30
2018-12-19T12:54:57.765Z,19.40
2018-12-19T12:57:27.011Z,19.40
2018-12-19T13:02:31.901Z,19.40
2018-12-19T13:05:00.470Z,19.40
2018-12-19T13:07:29.649Z,19.40
2018-12-19T13:09:58.176Z,19.30
2018-12-19T13:12:26.702Z,19.30
2018-12-19T13:14:55.237Z,19.40
2018-12-19T13:17:23.734Z,19.30
2018-12-19T13:19:52.206Z,19.30
2018-12-19T13:22:20.749Z,19.40
2018-12-19T13:24:49.274Z,19.40
2018-12-19T13:27:17.793Z,19.30
2018-12-19T13:29:46.305Z,19.40
2018-12-19T13:32:15.029Z,19.40
2018-12-19T13:34:43.544Z,19.30
2018-12-19T13:37:12.008Z,19.30
2018-12-19T13:39:40.525Z,19.30
2018-12-19T13:42:09.033Z,19.30
2018-12-19T13:44:37.536Z,19.40
2018-12-19T13:47:06.045Z,19.40
2018-12-19T13:49:34.582Z,19.40
2018-12-19T13:52:03.113Z,19.40
2018-12-19T13:54:31.589Z,19.40
2018-12-19T13:57:00.086Z,19.40
2018-12-19T13:59:28.635Z,19.40
2018-12-19T14:01:57.101Z,19.40
2018-12-19T14:04:25.697Z,19.40
2018-12-19T14:06:54.188Z,19.40
2018-12-19T14:09:22.662Z,19.40
2018-12-19T14:11:51.170Z,19.40
2018-12-19T14:14:19.719Z,19.40
2018-12-19T14:16:48.195Z,19.40
2018-12-19T14:19:16.712Z,19.40
2018-12-19T14:21:45.218Z,19.40
2018-12-19T14:24:13.763Z,19.30
2018-12-19T14:26:42.352Z,19.30
2018-12-19T14:29:11.019Z,19.30
2018-12-19T14:31:39.527Z,19.30
2018-12-19T14:34:08.047Z,19.30
2018-12-19T14:36:36.563Z,19.30
2018-12-19T14:39:07.021Z,19.30
2018-12-19T14:41:35.517Z,19.40
2018-12-19T14:44:04.077Z,19.40
2018-12-19T14:46:32.634Z,19.40
2018-12-19T14:49:01.154Z,19.30
2018-12-19T14:51:29.833Z,19.40
2018-12-19T14:53:58.347Z,19.40
2018-12-19T14:56:26.836Z,19.40
2018-12-19T14:58:55.357Z,19.40
2018-12-19T15:01:24.006Z,19.40
2018-12-19T15:03:52.528Z,19.40
2018-12-19T15:06:21.037Z,19.40
2018-12-19T15:08:49.693Z,19.40
2018-12-19T15:11:18.231Z,19.40
2018-12-19T15:13:46.736Z,19.40
2018-12-19T15:16:19.458Z,19.40
2018-12-19T15:18:47.967Z,19.40
2018-12-19T15:21:16.585Z,19.40
2018-12-19T15:23:45.205Z,19.40
2018-12-19T15:26:13.733Z,19.40
2018-12-19T15:28:42.216Z,19.40
2018-12-19T15:31:10.748Z,19.40
2018-12-19T15:33:39.244Z,19.40
2018-12-19T15:36:08.514Z,19.40
2018-12-19T15:38:37.159Z,19.40
2018-12-19T15:41:05.633Z,19.30
2018-12-19T15:43:35.272Z,19.30
2018-12-19T15:46:03.796Z,19.30
2018-12-19T15:48:32.312Z,19.30
2018-12-19T15:51:00.837Z,19.30
2018-12-19T15:53:29.360Z,19.30
2018-12-19T15:55:57.868Z,19.30
2018-12-19T15:58:26.380Z,19.40
2018-12-19T16:00:54.930Z,19.40
2018-12-19T16:03:23.428Z,19.40
2018-12-19T16:05:52.040Z,19.50
2018-12-19T16:08:20.552Z,19.50
2018-12-19T16:10:49.064Z,19.50
2018-12-19T16:13:17.564Z,19.60
2018-12-19T16:15:46.709Z,19.60
2018-12-19T16:18:15.387Z,19.70
2018-12-19T16:20:43.876Z,19.70
2018-12-19T16:23:12.376Z,19.80
2018-12-19T16:25:40.903Z,19.70
2018-12-19T16:28:09.413Z,19.70
2018-12-19T16:30:37.920Z,19.60
2018-12-19T16:33:06.508Z,19.60
2018-12-19T16:35:34.988Z,19.60
2018-12-19T16:38:03.520Z,19.50
2018-12-19T16:40:32.001Z,19.50
2018-12-19T16:43:00.530Z,19.50
2018-12-19T16:45:29.061Z,19.50
2018-12-19T16:47:57.571Z,19.50
2018-12-19T16:50:26.096Z,19.50
2018-12-19T16:52:54.612Z,19.60
2018-12-19T16:55:23.258Z,19.60
2018-12-19T16:57:51.794Z,19.60
2018-12-19T17:00:20.360Z,19.70
2018-12-19T17:02:48.872Z,19.60
2018-12-19T17:05:17.364Z,19.60
2018-12-19T17:07:45.888Z,19.50
2018-12-19T17:10:14.389Z,19.50
2018-12-19T17:12:42.916Z,19.50
2018-12-19T17:15:11.412Z,19.50
2018-12-19T17:17:39.924Z,19.50
2018-12-19T17:20:08.476Z,19.50
2018-12-19T17:22:36.994Z,19.50
2018-12-19T17:25:05.492Z,19.50
2018-12-19T17:27:34.022Z,19.60
2018-12-19T17:30:02.623Z,19.60
2018-12-19T17:32:31.285Z,19.60
2018-12-19T17:34:59.801Z,19.60
2018-12-19T17:37:28.317Z,19.60
2018-12-19T17:39:56.801Z,19.60
2018-12-19T17:42:25.281Z,19.60
2018-12-19T17:44:53.793Z,19.60
2018-12-19T17:47:22.331Z,19.60
2018-12-19T17:49:50.879Z,19.60
2018-12-19T17:52:19.377Z,19.60
2018-12-19T17:54:47.925Z,19.60
2018-12-19T17:57:16.488Z,19.60
2018-12-19T17:59:44.994Z,19.50
2018-12-19T18:02:13.517Z,19.60
2018-12-19T18:04:42.065Z,19.50
2018-12-19T18:07:10.594Z,19.50
2018-12-19T18:09:39.174Z,19.50
2018-12-19T18:12:07.701Z,19.50
2018-12-19T18:14:36.429Z,19.60
2018-12-19T18:17:04.947Z,19.60
2018-12-19T18:19:33.443Z,19.60
2018-12-19T18:22:01.981Z,19.60
2018-12-19T18:24:30.520Z,19.70
2018-12-19T18:26:59.065Z,19.70
2018-12-19T18:29:27.886Z,19.70
2018-12-19T18:31:56.392Z,19.70
2018-12-19T18:34:24.951Z,19.70
2018-12-19T18:36:53.483Z,19.70
2018-12-19T18:39:26.077Z,19.70
2018-12-19T18:41:52.494Z,19.70
2018-12-19T18:44:21.000Z,19.70
2018-12-19T18:46:49.573Z,19.70
2018-12-19T18:49:19.090Z,19.70
2018-12-19T18:51:47.609Z,19.70
2018-12-19T18:54:16.165Z,19.70
2018-12-19T18:56:44.745Z,19.70
2018-12-19T18:59:13.340Z,19.70
2018-12-19T19:01:42.078Z,19.70
2018-12-19T19:04:10.660Z,19.70
2018-12-19T19:06:39.762Z,19.70
2018-12-19T19:09:08.490Z,19.70
2018-12-19T19:11:37.521Z,19.70
2018-12-19T19:14:06.073Z,19.80
2018-12-19T19:16:34.653Z,19.70
2018-12-19T19:19:03.189Z,19.70
2018-12-19T19:21:31.745Z,19.70
2018-12-19T19:24:00.292Z,19.70
2018-12-19T19:26:28.878Z,19.70
2018-12-19T19:28:57.509Z,19.60
2018-12-19T19:31:26.045Z,19.60
2018-12-19T19:33:55.467Z,19.60
2018-12-19T19:36:24.044Z,19.60
2018-12-19T19:38:52.635Z,19.60
2018-12-19T19:41:21.792Z,19.60
2018-12-19T19:43:50.684Z,19.50
2018-12-19T19:46:19.253Z,19.60
2018-12-19T19:48:47.825Z,19.60
2018-12-19T19:51:17.083Z,19.60
2018-12-19T19:53:45.982Z,19.50
2018-12-19T19:56:14.653Z,19.60
2018-12-19T19:58:43.205Z,19.50
2018-12-19T20:01:11.883Z,19.50
2018-12-19T20:03:40.866Z,19.50
2018-12-19T20:06:09.835Z,19.50
2018-12-19T20:08:38.419Z,19.50
2018-12-19T20:11:07.936Z,19.50
2018-12-19T20:13:36.831Z,19.60
2018-12-19T20:16:05.773Z,19.60
2018-12-19T20:18:34.422Z,19.60
2018-12-19T20:21:03.727Z,19.60
2018-12-19T20:23:32.476Z,19.60
2018-12-19T20:26:01.102Z,19.60
2018-12-19T20:28:30.874Z,19.60
2018-12-19T20:30:59.434Z,19.60
2018-12-19T20:33:28.153Z,19.60
2018-12-19T20:35:56.748Z,19.60
2018-12-19T20:38:25.312Z,19.60
2018-12-19T20:40:54.945Z,19.60
2018-12-19T20:43:23.525Z,19.60
2018-12-19T20:45:52.306Z,19.60
2018-12-19T20:48:21.665Z,19.60
2018-12-19T20:50:51.075Z,19.60
2018-12-19T20:53:19.612Z,19.60
2018-12-19T20:55:48.207Z,19.60
2018-12-19T20:58:16.728Z,19.70
2018-12-19T21:00:45.358Z,19.70
2018-12-19T21:03:14.409Z,19.70
2018-12-19T21:05:43.030Z,19.70
2018-12-19T21:08:11.651Z,19.70
2018-12-19T21:10:40.241Z,19.70
2018-12-19T21:13:08.855Z,19.70
2018-12-19T21:15:37.469Z,19.70
2018-12-19T21:18:11.368Z,19.70
2018-12-19T21:20:40.708Z,19.70
2018-12-19T21:23:09.346Z,19.70
2018-12-19T21:25:37.909Z,19.70
2018-12-19T21:28:06.480Z,19.70
2018-12-19T21:30:35.132Z,19.70
2018-12-19T21:33:03.961Z,19.70
2018-12-19T21:35:32.731Z,19.70
2018-12-19T21:38:02.440Z,19.70
2018-12-19T21:40:30.962Z,19.70
2018-12-19T21:42:59.691Z,19.70
2018-12-19T21:45:28.354Z,19.70
2018-12-19T21:47:57.049Z,19.70
2018-12-19T21:50:25.580Z,19.70
2018-12-19T21:52:54.087Z,19.70
2018-12-19T21:55:22.657Z,19.70
2018-12-19T21:57:51.370Z,19.70
2018-12-19T22:00:30.581Z,19.70
2018-12-19T22:03:03.357Z,19.70
2018-12-19T22:05:31.869Z,19.70
2018-12-19T22:08:00.508Z,19.70
2018-12-19T22:10:29.156Z,19.60
2018-12-19T22:12:57.728Z,19.60
2018-12-19T22:15:30.358Z,19.60
2018-12-19T22:18:07.082Z,19.60
2018-12-19T22:20:35.735Z,19.60
2018-12-19T22:23:04.487Z,19.60
2018-12-19T22:25:33.157Z,19.60
2018-12-19T22:28:01.792Z,19.60
2018-12-19T22:30:30.469Z,19.70
2018-12-19T22:32:59.081Z,19.70
2018-12-19T22:35:27.661Z,19.70
2018-12-19T22:37:56.159Z,19.70
2018-12-19T22:40:24.653Z,19.70
2018-12-19T22:42:53.204Z,19.70
2018-12-19T22:45:21.920Z,19.80
2018-12-19T22:47:50.488Z,19.70
2018-12-19T22:50:19.099Z,19.80
2018-12-19T22:52:47.708Z,19.80
2018-12-19T22:55:16.256Z,19.80
2018-12-19T22:57:44.808Z,19.80
2018-12-19T23:00:17.071Z,19.90
2018-12-19T23:03:16.790Z,19.80
2018-12-19T23:05:51.296Z,19.80
2018-12-19T23:08:19.978Z,19.80
2018-12-19T23:10:48.526Z,19.80
2018-12-19T23:13:17.537Z,19.80
2018-12-19T23:15:46.513Z,19.80
2018-12-19T23:18:20.371Z,19.80
2018-12-19T23:20:49.021Z,19.80
2018-12-19T23:23:17.580Z,19.80
2018-12-19T23:25:46.152Z,19.80
2018-12-19T23:28:14.707Z,19.70
2018-12-19T23:30:43.299Z,19.70
2018-12-19T23:33:11.954Z,19.70
2018-12-19T23:35:40.480Z,19.70
2018-12-19T23:38:09.000Z,19.70
2018-12-19T23:40:37.507Z,19.70
2018-12-19T23:43:06.206Z,19.70
2018-12-19T23:45:34.777Z,19.70
2018-12-19T23:48:03.398Z,19.60
2018-12-19T23:50:32.009Z,19.70
2018-12-19T23:53:00.551Z,19.60
2018-12-19T23:55:31.471Z,19.70
2018-12-19T23:58:00.100Z,19.60
